Terminal Aerodrome Forecast
Issued by NWS

Home | Current Version | Previous Version | Text Only | Print | Product List | Glossary Off
Versions: 1 2 3 4 5 6 7 8 9 10 11 12 13 14 15 16 17 18 19 20

000
FTUS43 KBIS 191700
TAFDIK
TAF
KDIK 191722Z 1918/2018 18018KT P6SM SCT100
     FM192100 22018KT P6SM VCTS SCT060 BKN100CB
     FM200100 24009KT P6SM SCT100
     FM200900 27009KT P6SM SCT060
     FM201500 28015G22KT P6SM SCT080=

USA.gov is the U.S. government's official web portal to all federal, state and local government web resources and services.